Time;durP1;ratioP1;P1;durP2;ratioP2;P2;SDS_P1;SDS_P2;PMS_P1;PMS_P2;Temp;Humidity;BMP_temperature;BMP_pressure;BME280_temperature;BME280_humidity;BME280_pressure;Samples;Min_cycle;Max_cycle;Signal;HPM_P1;HPM_P2
2023/10/17 00:01:46;;;;;;;8.50;2.70;;;;;;;;;;5006590;28;20073;-66
2023/10/17 00:06:44;;;;;;;5.07;2.25;;;;;;;;;;5009065;28;20029;-67
2023/10/17 00:09:10;;;;;;;6.30;2.45;;;;;;;;;;5011937;28;20042;-66
2023/10/17 00:14:35;;;;;;;6.88;2.00;;;;;;;;;;5021614;28;20141;-66
2023/10/17 00:17:03;;;;;;;4.80;1.90;;;;;;;;;;5012941;28;20075;-67
2023/10/17 00:19:31;;;;;;;4.65;1.98;;;;;;;;;;5013598;28;20037;-66
2023/10/17 00:21:59;;;;;;;5.68;1.88;;;;;;;;;;5013161;28;21720;-67
2023/10/17 00:24:25;;;;;;;5.78;2.40;;;;;;;;;;5011407;28;20434;-67
2023/10/17 00:26:51;;;;;;;7.22;3.50;;;;;;;;;;5010788;28;20025;-67
2023/10/17 00:29:17;;;;;;;7.78;3.15;;;;;;;;;;5012716;28;20041;-66
2023/10/17 00:31:46;;;;;;;7.07;3.28;;;;;;;;;;5012639;28;20033;-67
2023/10/17 00:34:16;;;;;;;7.38;3.22;;;;;;;;;;5012719;28;20030;-67
2023/10/17 00:37:00;;;;;;;7.45;2.88;;;;;;;;;;5010671;28;20044;-66
2023/10/17 00:39:30;;;;;;;7.75;2.50;;;;;;;;;;5010897;28;21134;-66
2023/10/17 00:42:09;;;;;;;4.45;2.42;;;;;;;;;;5010123;28;20037;-66
2023/10/17 00:44:39;;;;;;;6.22;2.83;;;;;;;;;;5010883;28;20049;-66
2023/10/17 00:47:08;;;;;;;10.43;2.65;;;;;;;;;;5011350;28;20054;-66
2023/10/17 00:49:44;;;;;;;8.98;2.85;;;;;;;;;;5012585;28;20021;-66
2023/10/17 00:52:22;;;;;;;6.07;2.83;;;;;;;;;;5012278;28;20080;-67
2023/10/17 00:54:53;;;;;;;6.38;2.97;;;;;;;;;;5012293;28;20025;-66
2023/10/17 00:57:22;;;;;;;7.63;2.95;;;;;;;;;;5011876;28;20128;-66
2023/10/17 00:59:53;;;;;;;5.82;2.65;;;;;;;;;;5012078;28;20400;-67
2023/10/17 01:02:29;;;;;;;6.43;2.60;;;;;;;;;;5011496;28;20166;-66
2023/10/17 01:04:59;;;;;;;7.90;2.83;;;;;;;;;;5010389;28;20045;-66
2023/10/17 01:07:29;;;;;;;7.88;2.97;;;;;;;;;;5011453;28;21184;-66
2023/10/17 01:09:55;;;;;;;5.80;2.78;;;;;;;;;;5011738;28;20052;-66
2023/10/17 01:12:28;;;;;;;7.60;2.60;;;;;;;;;;5012614;28;20080;-66
2023/10/17 01:14:57;;;;;;;5.43;2.22;;;;;;;;;;5011630;28;20029;-66
2023/10/17 01:17:27;;;;;;;6.18;2.50;;;;;;;;;;5011559;28;20136;-66
2023/10/17 01:20:07;;;;;;;5.78;2.42;;;;;;;;;;5011917;28;20038;-66
2023/10/17 01:22:35;;;;;;;7.45;2.78;;;;;;;;;;5012131;28;20033;-66
2023/10/17 01:25:17;;;;;;;9.77;2.72;;;;;;;;;;5010243;28;20037;-66
2023/10/17 01:27:44;;;;;;;7.00;2.83;;;;;;;;;;5011682;28;20787;-67
2023/10/17 01:30:11;;;;;;;5.30;2.30;;;;;;;;;;5011607;28;20033;-67
2023/10/17 01:32:37;;;;;;;8.93;2.60;;;;;;;;;;5011125;28;20045;-66
2023/10/17 01:35:03;;;;;;;5.25;1.83;;;;;;;;;;5011583;28;20034;-67
2023/10/17 01:37:29;;;;;;;7.55;2.35;;;;;;;;;;5010666;28;20033;-66
2023/10/17 01:39:55;;;;;;;6.20;2.22;;;;;;;;;;5010532;28;20049;-66
2023/10/17 01:42:22;;;;;;;6.05;2.28;;;;;;;;;;5012017;28;20041;-66
2023/10/17 01:44:48;;;;;;;7.70;2.20;;;;;;;;;;5010943;28;20033;-67
2023/10/17 01:47:14;;;;;;;5.50;2.05;;;;;;;;;;5010374;28;20086;-67
2023/10/17 01:49:40;;;;;;;4.68;2.40;;;;;;;;;;5010870;28;20678;-67
2023/10/17 01:52:08;;;;;;;8.00;2.50;;;;;;;;;;5011651;28;20037;-67
2023/10/17 01:54:36;;;;;;;7.53;2.10;;;;;;;;;;5011690;28;20018;-67
2023/10/17 01:57:06;;;;;;;5.07;2.75;;;;;;;;;;5010709;28;20190;-67
2023/10/17 01:59:34;;;;;;;5.15;2.40;;;;;;;;;;5010755;28;20034;-67
2023/10/17 02:02:03;;;;;;;7.03;2.55;;;;;;;;;;5009767;28;20121;-67
2023/10/17 02:04:30;;;;;;;6.05;2.13;;;;;;;;;;5010942;28;20041;-66
2023/10/17 02:06:56;;;;;;;6.90;2.30;;;;;;;;;;5010284;28;20033;-67
2023/10/17 02:12:05;;;;;;;5.13;2.47;;;;;;;;;;5011857;28;21887;-66
2023/10/17 02:14:31;;;;;;;6.55;2.33;;;;;;;;;;5010279;28;20037;-66
2023/10/17 02:16:59;;;;;;;5.63;2.38;;;;;;;;;;5009810;28;20041;-66
2023/10/17 02:19:31;;;;;;;6.50;2.28;;;;;;;;;;5011981;28;20052;-67
2023/10/17 02:22:01;;;;;;;5.00;2.50;;;;;;;;;;5010706;28;20061;-66
2023/10/17 02:24:31;;;;;;;4.25;2.13;;;;;;;;;;5009667;28;20029;-66
2023/10/17 02:27:00;;;;;;;5.72;2.03;;;;;;;;;;5008968;28;20030;-67
2023/10/17 02:29:29;;;;;;;8.20;1.90;;;;;;;;;;5009780;28;20045;-66
2023/10/17 02:31:55;;;;;;;6.07;2.10;;;;;;;;;;5008280;28;20025;-66
2023/10/17 02:34:22;;;;;;;5.10;2.13;;;;;;;;;;5010509;28;20026;-66
2023/10/17 02:36:55;;;;;;;3.28;1.92;;;;;;;;;;5010471;28;20961;-66
2023/10/17 02:39:21;;;;;;;5.65;1.80;;;;;;;;;;5010474;28;20072;-67
2023/10/17 02:42:06;;;;;;;5.18;2.10;;;;;;;;;;5008126;28;20107;-67
2023/10/17 02:44:32;;;;;;;4.53;2.20;;;;;;;;;;5009360;28;20042;-66
2023/10/17 02:46:58;;;;;;;4.30;1.95;;;;;;;;;;5007684;28;20399;-66
2023/10/17 02:49:27;;;;;;;5.53;2.17;;;;;;;;;;5008758;28;20040;-66
2023/10/17 02:52:01;;;;;;;6.90;2.47;;;;;;;;;;5009892;28;20037;-66
2023/10/17 02:54:27;;;;;;;;;;;;;;;;;;5010972;28;20523;-67
2023/10/17 02:56:53;;;;;;;7.10;2.35;;;;;;;;;;5009542;28;19959;-66
2023/10/17 02:59:21;;;;;;;6.50;2.55;;;;;;;;;;5009773;28;20064;-66
2023/10/17 03:01:55;;;;;;;5.18;2.42;;;;;;;;;;5008449;28;20532;-66
2023/10/17 03:04:23;;;;;;;5.10;2.47;;;;;;;;;;5009787;28;20069;-67
2023/10/17 03:06:56;;;;;;;6.18;2.15;;;;;;;;;;5009193;28;20034;-66
2023/10/17 03:17:15;;;;;;;6.95;2.40;;;;;;;;;;5006872;28;20049;-66
2023/10/17 03:19:41;;;;;;;5.43;2.50;;;;;;;;;;5008967;28;20122;-67
2023/10/17 03:22:24;;;;;;;5.15;2.05;;;;;;;;;;5008126;28;21037;-66
2023/10/17 03:25:02;;;;;;;5.32;2.05;;;;;;;;;;5008294;28;21385;-63
2023/10/17 03:27:36;;;;;;;6.45;2.25;;;;;;;;;;5008290;28;20174;-63
2023/10/17 03:30:08;;;;;;;5.75;2.42;;;;;;;;;;5009322;28;20028;-63
2023/10/17 03:32:34;;;;;;;5.53;2.50;;;;;;;;;;5009228;28;20037;-63
2023/10/17 03:35:07;;;;;;;6.60;2.58;;;;;;;;;;5009114;28;20020;-63
2023/10/17 03:37:33;;;;;;;4.67;2.27;;;;;;;;;;5025016;28;20579;-63
2023/10/17 03:40:15;;;;;;;6.80;2.38;;;;;;;;;;5009783;28;20034;-63
2023/10/17 03:45:23;;;;;;;4.53;2.40;;;;;;;;;;5008565;28;20504;-63
2023/10/17 03:47:53;;;;;;;12.32;2.85;;;;;;;;;;5007780;28;21143;-63
2023/10/17 03:50:34;;;;;;;5.82;2.50;;;;;;;;;;5007322;28;20068;-63
2023/10/17 03:53:06;;;;;;;3.90;2.00;;;;;;;;;;5008018;28;20017;-63
2023/10/17 03:55:33;;;;;;;7.63;2.40;;;;;;;;;;5007799;28;20046;-63
2023/10/17 03:58:00;;;;;;;4.75;2.10;;;;;;;;;;5008494;28;20036;-62
2023/10/17 04:00:41;;;;;;;5.30;2.42;;;;;;;;;;5008065;28;20025;-63
2023/10/17 04:03:13;;;;;;;4.15;1.88;;;;;;;;;;5008700;28;21665;-63
2023/10/17 04:05:40;;;;;;;5.47;1.95;;;;;;;;;;5007880;28;20083;-63
2023/10/17 04:08:09;;;;;;;5.05;1.88;;;;;;;;;;5008980;28;20065;-63
2023/10/17 04:10:53;;;;;;;4.35;2.05;;;;;;;;;;5009199;28;20144;-63
2023/10/17 04:13:34;;;;;;;5.95;2.13;;;;;;;;;;5009616;28;21054;-63
2023/10/17 04:16:00;;;;;;;4.25;1.83;;;;;;;;;;5007775;28;20037;-63
2023/10/17 04:18:29;;;;;;;7.93;2.00;;;;;;;;;;5009444;28;20048;-63
2023/10/17 04:21:12;;;;;;;5.63;2.00;;;;;;;;;;5008310;28;20030;-63
2023/10/17 04:23:38;;;;;;;6.03;2.30;;;;;;;;;;5008831;28;20034;-63
2023/10/17 04:26:06;;;;;;;5.93;2.50;;;;;;;;;;5007367;28;20117;-63
2023/10/17 04:28:34;;;;;;;6.32;2.38;;;;;;;;;;5010223;28;20033;-63
2023/10/17 04:31:00;;;;;;;4.90;1.55;;;;;;;;;;5024180;28;20049;-63
2023/10/17 04:33:28;;;;;;;3.72;1.55;;;;;;;;;;5007732;28;20465;-63
2023/10/17 04:35:59;;;;;;;5.65;1.90;;;;;;;;;;5008415;28;20033;-63
2023/10/17 04:44:18;;;;;;;4.82;1.92;;;;;;;;;;5015990;28;20049;-63
2023/10/17 04:46:51;;;;;;;8.53;2.80;;;;;;;;;;5008916;28;20038;-63
2023/10/17 04:49:21;;;;;;;6.20;2.95;;;;;;;;;;5008539;28;20338;-63
2023/10/17 04:51:53;;;;;;;5.50;2.50;;;;;;;;;;5008526;28;20033;-63
2023/10/17 04:54:29;;;;;;;6.07;3.00;;;;;;;;;;5009953;28;20029;-63
2023/10/17 04:56:59;;;;;;;8.25;3.72;;;;;;;;;;5011523;28;20033;-63
2023/10/17 06:18:39;;;;;;;7.47;3.20;;;;;;;;;;5011120;28;20045;-63
2023/10/17 06:34:18;;;;;;;11.85;3.47;;;;;;;;;;5011085;28;20033;-63
2023/10/17 06:36:44;;;;;;;9.57;3.40;;;;;;;;;;5010834;28;20060;-63
2023/10/17 06:39:17;;;;;;;10.32;4.03;;;;;;;;;;5011031;28;20029;-63
2023/10/17 06:41:44;;;;;;;10.02;3.78;;;;;;;;;;5010513;28;20107;-63
2023/10/17 06:44:15;;;;;;;10.52;3.35;;;;;;;;;;5010804;28;20056;-63
2023/10/17 06:47:02;;;;;;;9.05;3.60;;;;;;;;;;5010226;28;20455;-63
2023/10/17 06:54:52;;;;;;;7.95;3.05;;;;;;;;;;5010679;28;20042;-63
2023/10/17 06:57:24;;;;;;;7.63;2.60;;;;;;;;;;5010379;28;20065;-63
2023/10/17 06:59:54;;;;;;;8.50;2.40;;;;;;;;;;5010418;28;20056;-63
2023/10/17 07:03:03;;;;;;;7.90;3.13;;;;;;;;;;5010279;28;20025;-63
2023/10/17 07:05:10;;;;;;;7.78;3.30;;;;;;;;;;5009834;28;20068;-63
2023/10/17 07:07:40;;;;;;;10.18;3.47;;;;;;;;;;5010217;28;20099;-63
2023/10/17 07:10:36;;;;;;;8.65;3.70;;;;;;;;;;5010374;28;20480;-63
2023/10/17 07:13:22;;;;;;;9.98;3.97;;;;;;;;;;5010182;28;20544;-63
2023/10/17 07:15:52;;;;;;;8.30;3.72;;;;;;;;;;5010175;28;20121;-63
2023/10/17 07:23:41;;;;;;;6.07;2.90;;;;;;;;;;5010108;28;20129;-63
2023/10/17 07:26:15;;;;;;;7.50;3.00;;;;;;;;;;5009901;28;20041;-63
2023/10/17 07:28:44;;;;;;;6.80;2.42;;;;;;;;;;5010224;28;20975;-63
2023/10/17 07:31:11;;;;;;;5.30;2.38;;;;;;;;;;5010064;28;20048;-63
2023/10/17 07:33:44;;;;;;;7.80;2.30;;;;;;;;;;5010081;28;21882;-63
2023/10/17 07:36:15;;;;;;;5.70;2.60;;;;;;;;;;5010299;28;20527;-63
2023/10/17 07:38:44;;;;;;;7.75;2.67;;;;;;;;;;5009720;28;20274;-63
2023/10/17 07:41:14;;;;;;;8.60;2.30;;;;;;;;;;5010131;28;20546;-63
2023/10/17 07:43:44;;;;;;;4.85;1.90;;;;;;;;;;5009563;28;20092;-63
2023/10/17 07:46:15;;;;;;;5.03;2.25;;;;;;;;;;5009779;28;20477;-63
2023/10/17 07:48:48;;;;;;;7.32;2.40;;;;;;;;;;5010162;28;20061;-63
2023/10/17 07:51:15;;;;;;;5.53;1.90;;;;;;;;;;5010499;28;21756;-63
2023/10/17 07:53:47;;;;;;;6.15;1.83;;;;;;;;;;5009882;28;20048;-63
2023/10/17 07:56:26;;;;;;;7.82;2.10;;;;;;;;;;5009546;28;20076;-63
2023/10/17 07:59:04;;;;;;;4.63;1.90;;;;;;;;;;5008792;28;20488;-63
2023/10/17 08:01:44;;;;;;;7.63;2.78;;;;;;;;;;5008949;28;20049;-63
2023/10/17 08:04:17;;;;;;;7.20;2.28;;;;;;;;;;5009611;28;20038;-64
2023/10/17 08:06:43;;;;;;;8.63;2.70;;;;;;;;;;5008733;28;20091;-63
2023/10/17 08:11:52;;;;;;;7.80;2.53;;;;;;;;;;5009916;28;20036;-63
2023/10/17 08:14:22;;;;;;;7.90;2.47;;;;;;;;;;5009273;28;20451;-63
2023/10/17 08:16:50;;;;;;;9.57;2.90;;;;;;;;;;5009730;28;20041;-63
2023/10/17 08:19:21;;;;;;;9.95;2.58;;;;;;;;;;5009661;28;20033;-63
2023/10/17 08:24:26;;;;;;;8.10;2.60;;;;;;;;;;5009905;28;20026;-63
2023/10/17 08:27:13;;;;;;;7.13;2.80;;;;;;;;;;5009675;28;20128;-63
2023/10/17 08:29:38;;;;;;;9.07;2.55;;;;;;;;;;5011469;28;20037;-63
2023/10/17 08:34:46;;;;;;;8.93;3.08;;;;;;;;;;5013517;28;20147;-63
2023/10/17 08:37:19;;;;;;;11.60;3.45;;;;;;;;;;5013594;28;20168;-63
2023/10/17 08:42:14;;;;;;;10.32;3.17;;;;;;;;;;5013464;28;20285;-63
2023/10/17 08:44:42;;;;;;;7.65;3.58;;;;;;;;;;5012842;28;20037;-63
2023/10/17 08:47:16;;;;;;;7.95;2.88;;;;;;;;;;5011771;28;20758;-63
2023/10/17 08:49:47;;;;;;;8.02;3.13;;;;;;;;;;5011566;28;20455;-63
2023/10/17 08:52:23;;;;;;;6.07;2.40;;;;;;;;;;5012550;28;20730;-63
2023/10/17 08:54:49;;;;;;;7.72;2.80;;;;;;;;;;5010435;28;20039;-63
2023/10/17 08:57:15;;;;;;;8.65;2.20;;;;;;;;;;5011970;28;20034;-63
2023/10/17 09:02:29;;;;;;;7.50;2.03;;;;;;;;;;5012978;28;20068;-63
2023/10/17 09:05:18;;;;;;;5.80;1.55;;;;;;;;;;5013054;28;20033;-64
2023/10/17 09:07:48;;;;;;;6.95;1.60;;;;;;;;;;5013447;28;20083;-63
2023/10/17 09:10:20;;;;;;;4.40;1.25;;;;;;;;;;5012991;28;20046;-63
2023/10/17 09:15:48;;;;;;;;;;;;;;;;;;5013600;28;20079;-63
2023/10/17 09:18:14;;;;;;;2.90;1.00;;;;;;;;;;5013231;28;19917;-63
2023/10/17 09:20:41;;;;;;;11.40;1.80;;;;;;;;;;5012892;28;20033;-63
2023/10/17 09:23:27;;;;;;;5.60;1.40;;;;;;;;;;5012994;28;20068;-64
2023/10/17 09:26:19;;;;;;;7.85;1.55;;;;;;;;;;5013560;28;20038;-64
2023/10/17 09:28:47;;;;;;;3.92;1.40;;;;;;;;;;5012276;28;20038;-64
2023/10/17 09:31:15;;;;;;;5.55;1.50;;;;;;;;;;5013278;28;20504;-64
2023/10/17 09:33:45;;;;;;;4.97;1.70;;;;;;;;;;5012533;28;20049;-63
2023/10/17 09:36:12;;;;;;;5.05;1.48;;;;;;;;;;5012377;28;20033;-64
2023/10/17 09:38:43;;;;;;;3.38;1.48;;;;;;;;;;5010902;28;20033;-63
2023/10/17 09:41:11;;;;;;;6.13;1.65;;;;;;;;;;5012095;28;20045;-64
2023/10/17 09:43:38;;;;;;;6.00;1.65;;;;;;;;;;5012388;28;21011;-64
2023/10/17 09:46:04;;;;;;;9.60;1.98;;;;;;;;;;5012480;28;20098;-64
2023/10/17 09:48:35;;;;;;;4.93;1.30;;;;;;;;;;5012198;28;20156;-64
2023/10/17 09:51:04;;;;;;;5.40;1.70;;;;;;;;;;5012248;28;20018;-64
2023/10/17 09:53:35;;;;;;;5.95;1.75;;;;;;;;;;5013153;28;20830;-63
2023/10/17 09:56:06;;;;;;;7.20;1.50;;;;;;;;;;5012013;28;20098;-63
2023/10/17 09:58:34;;;;;;;4.47;1.17;;;;;;;;;;5012141;28;20542;-64
2023/10/17 10:01:05;;;;;;;4.30;1.20;;;;;;;;;;5011924;28;20034;-64
2023/10/17 10:03:31;;;;;;;7.22;1.42;;;;;;;;;;5011511;28;20037;-64
2023/10/17 10:06:17;;;;;;;4.03;1.35;;;;;;;;;;5011402;28;20029;-67
2023/10/17 10:08:43;;;;;;;4.15;0.93;;;;;;;;;;5011493;28;20038;-67
2023/10/17 10:11:11;;;;;;;6.55;1.40;;;;;;;;;;5011555;28;20040;-67
2023/10/17 10:13:58;;;;;;;5.90;1.20;;;;;;;;;;5011710;28;20045;-67
2023/10/17 10:16:44;;;;;;;4.15;0.90;;;;;;;;;;5010431;28;20042;-67
2023/10/17 10:19:10;;;;;;;4.25;0.98;;;;;;;;;;5011461;28;20431;-67
2023/10/17 10:21:54;;;;;;;5.72;1.17;;;;;;;;;;5010043;28;20041;-67
2023/10/17 10:24:26;;;;;;;4.65;1.40;;;;;;;;;;5012188;28;20037;-66
2023/10/17 10:27:27;;;;;;;6.70;1.15;;;;;;;;;;5011081;28;20128;-67
2023/10/17 10:30:19;;;;;;;4.38;1.58;;;;;;;;;;5011040;28;20682;-67
2023/10/17 10:32:47;;;;;;;4.13;1.00;;;;;;;;;;5011232;28;20033;-67
2023/10/17 10:35:14;;;;;;;4.00;0.90;;;;;;;;;;5011188;28;20140;-67
2023/10/17 10:37:52;;;;;;;4.72;1.30;;;;;;;;;;5027591;28;21083;-67
2023/10/17 10:40:22;;;;;;;3.28;0.90;;;;;;;;;;5011307;28;20377;-67
2023/10/17 10:42:50;;;;;;;5.45;1.63;;;;;;;;;;5010918;28;20033;-67
2023/10/17 10:45:29;;;;;;;9.02;1.83;;;;;;;;;;5010892;28;20039;-67
2023/10/17 10:47:58;;;;;;;3.67;1.00;;;;;;;;;;5010722;28;20048;-67
2023/10/17 10:50:31;;;;;;;2.60;1.02;;;;;;;;;;5010987;28;20029;-67
2023/10/17 10:52:58;;;;;;;6.13;1.35;;;;;;;;;;5010510;28;20071;-66
2023/10/17 10:55:25;;;;;;;5.00;1.40;;;;;;;;;;5010806;28;20037;-67
2023/10/17 10:57:51;;;;;;;4.45;1.00;;;;;;;;;;5010708;28;20040;-67
2023/10/17 11:00:18;;;;;;;7.60;1.80;;;;;;;;;;5010966;28;20302;-67
2023/10/17 11:02:44;;;;;;;2.95;0.98;;;;;;;;;;5008901;28;20038;-67
2023/10/17 11:05:13;;;;;;;4.13;0.95;;;;;;;;;;5009487;28;20037;-67
2023/10/17 11:07:41;;;;;;;5.63;1.67;;;;;;;;;;5009765;28;20120;-67
2023/10/17 11:10:07;;;;;;;7.15;1.60;;;;;;;;;;5009703;28;20144;-67
2023/10/17 11:12:37;;;;;;;4.85;1.23;;;;;;;;;;5006405;28;20053;-68
2023/10/17 11:15:16;;;;;;;3.50;1.17;;;;;;;;;;5010279;28;20033;-66
2023/10/17 11:17:45;;;;;;;6.82;2.10;;;;;;;;;;5009623;28;20052;-67
2023/10/17 11:20:17;;;;;;;5.72;1.40;;;;;;;;;;5009817;28;21014;-67
2023/10/17 11:22:43;;;;;;;3.75;1.10;;;;;;;;;;5009793;28;20030;-67
2023/10/17 11:25:13;;;;;;;5.25;1.13;;;;;;;;;;5009747;28;20111;-67
2023/10/17 11:27:41;;;;;;;3.80;1.08;;;;;;;;;;5009954;28;20209;-67
2023/10/17 11:30:08;;;;;;;5.00;1.15;;;;;;;;;;5009562;28;20059;-67
2023/10/17 11:32:40;;;;;;;7.00;1.38;;;;;;;;;;5009785;28;20033;-68
2023/10/17 11:35:19;;;;;;;3.05;1.00;;;;;;;;;;5009685;28;20152;-68
2023/10/17 11:37:46;;;;;;;3.95;1.00;;;;;;;;;;5009327;28;20048;-67
2023/10/17 11:40:29;;;;;;;6.18;1.25;;;;;;;;;;5009687;28;20026;-67
2023/10/17 11:42:58;;;;;;;4.90;1.20;;;;;;;;;;5009647;28;20057;-67
2023/10/17 11:45:33;;;;;;;5.38;1.30;;;;;;;;;;5009453;28;20124;-68
2023/10/17 11:48:06;;;;;;;4.15;0.95;;;;;;;;;;5008799;28;20079;-67
2023/10/17 11:50:34;;;;;;;;;;;;;;;;;;5009112;28;20071;-68
2023/10/17 11:53:09;;;;;;;5.07;1.30;;;;;;;;;;5008316;28;20391;-68
2023/10/17 11:55:48;;;;;;;9.73;1.55;;;;;;;;;;5009295;28;20053;-67
2023/10/17 11:58:26;;;;;;;3.10;1.05;;;;;;;;;;5008839;28;20598;-67
2023/10/17 12:00:52;;;;;;;3.03;0.77;;;;;;;;;;5009037;28;20041;-67
2023/10/17 12:03:21;;;;;;;3.70;1.10;;;;;;;;;;5010317;28;20087;-67
2023/10/17 12:05:47;;;;;;;5.68;1.15;;;;;;;;;;5013449;28;21124;-67
2023/10/17 12:08:22;;;;;;;6.88;1.38;;;;;;;;;;5013555;28;20049;-68
2023/10/17 12:10:53;;;;;;;2.45;1.13;;;;;;;;;;5014051;28;20040;-67
2023/10/17 12:13:19;;;;;;;2.63;0.95;;;;;;;;;;5012777;28;20034;-67
2023/10/17 12:15:49;;;;;;;2.00;0.80;;;;;;;;;;5012133;28;20060;-68
2023/10/17 12:18:15;;;;;;;5.13;1.05;;;;;;;;;;5012590;28;20052;-67
2023/10/17 12:20:41;;;;;;;3.53;1.65;;;;;;;;;;5012899;28;20123;-67
2023/10/17 12:23:11;;;;;;;6.90;1.20;;;;;;;;;;5012819;28;20903;-67
2023/10/17 12:25:37;;;;;;;4.53;1.00;;;;;;;;;;5013459;28;20029;-67
2023/10/17 12:28:06;;;;;;;5.60;1.00;;;;;;;;;;5013116;28;20029;-67
2023/10/17 12:30:35;;;;;;;4.30;1.63;;;;;;;;;;5013095;28;20036;-68
2023/10/17 12:33:02;;;;;;;5.45;1.05;;;;;;;;;;5013015;28;20064;-67
2023/10/17 12:35:28;;;;;;;5.20;1.45;;;;;;;;;;5012867;28;20029;-67
2023/10/17 12:38:14;;;;;;;4.38;1.08;;;;;;;;;;5013102;28;20026;-67
2023/10/17 12:40:40;;;;;;;5.55;1.23;;;;;;;;;;5013248;28;20891;-68
2023/10/17 12:43:08;;;;;;;3.63;1.50;;;;;;;;;;5012644;28;20030;-67
2023/10/17 12:45:36;;;;;;;3.72;1.20;;;;;;;;;;5012688;28;20029;-67
2023/10/17 12:48:02;;;;;;;3.28;1.42;;;;;;;;;;5012236;28;20152;-67
2023/10/17 12:50:29;;;;;;;5.07;1.20;;;;;;;;;;5012263;28;20017;-67
2023/10/17 12:52:55;;;;;;;3.78;1.42;;;;;;;;;;5012929;28;20037;-67
2023/10/17 12:55:21;;;;;;;3.70;1.08;;;;;;;;;;5012741;28;20099;-68
2023/10/17 12:57:47;;;;;;;4.88;1.10;;;;;;;;;;5012322;28;20550;-67
2023/10/17 13:00:14;;;;;;;4.07;1.42;;;;;;;;;;5012532;28;20041;-68
2023/10/17 13:02:41;;;;;;;5.82;1.17;;;;;;;;;;5012759;28;20041;-67
2023/10/17 13:05:11;;;;;;;5.43;1.50;;;;;;;;;;5012468;28;20160;-67
2023/10/17 13:07:38;;;;;;;3.58;1.35;;;;;;;;;;5012420;28;20029;-67
2023/10/17 13:10:05;;;;;;;5.32;1.45;;;;;;;;;;5012616;28;20014;-67
2023/10/17 13:12:32;;;;;;;3.25;1.48;;;;;;;;;;5012568;28;20056;-67
2023/10/17 13:14:59;;;;;;;5.03;1.58;;;;;;;;;;5011095;28;20541;-68
2023/10/17 13:17:25;;;;;;;6.85;1.67;;;;;;;;;;5011765;28;20156;-68
2023/10/17 13:19:52;;;;;;;3.83;1.42;;;;;;;;;;5012788;28;20082;-68
2023/10/17 13:22:22;;;;;;;4.47;1.50;;;;;;;;;;5012555;28;20045;-67
2023/10/17 13:24:50;;;;;;;5.72;1.50;;;;;;;;;;5012260;28;20634;-68
2023/10/17 13:27:16;;;;;;;3.47;1.48;;;;;;;;;;5012245;28;20739;-68
2023/10/17 13:29:42;;;;;;;3.40;1.30;;;;;;;;;;5010552;28;20044;-68
2023/10/17 13:32:08;;;;;;;5.70;1.55;;;;;;;;;;5010788;28;20441;-68
2023/10/17 13:34:35;;;;;;;4.35;1.27;;;;;;;;;;5011771;28;20037;-67
2023/10/17 13:37:04;;;;;;;6.38;1.67;;;;;;;;;;5012118;28;20025;-68
2023/10/17 13:39:30;;;;;;;6.85;2.05;;;;;;;;;;5012202;28;20431;-68
2023/10/17 13:41:56;;;;;;;6.32;1.75;;;;;;;;;;5011976;28;20033;-68
2023/10/17 13:44:23;;;;;;;4.55;1.30;;;;;;;;;;5012327;28;20046;-68
2023/10/17 13:46:51;;;;;;;2.95;1.25;;;;;;;;;;5012496;28;20034;-68
2023/10/17 13:49:17;;;;;;;6.47;1.33;;;;;;;;;;5012284;28;20160;-68
2023/10/17 13:51:46;;;;;;;6.35;1.58;;;;;;;;;;5012556;28;20088;-68
2023/10/17 13:54:13;;;;;;;4.68;1.40;;;;;;;;;;5012146;28;20041;-68
2023/10/17 13:56:40;;;;;;;3.03;1.17;;;;;;;;;;5012477;28;20034;-68
2023/10/17 13:59:09;;;;;;;4.28;1.35;;;;;;;;;;5012364;28;20754;-68
2023/10/17 14:01:41;;;;;;;5.35;1.20;;;;;;;;;;5011339;28;20039;-67
2023/10/17 14:04:09;;;;;;;3.50;1.00;;;;;;;;;;5011353;28;20030;-68
2023/10/17 14:06:42;;;;;;;2.40;1.25;;;;;;;;;;5011445;28;20040;-68
2023/10/17 14:09:15;;;;;;;5.30;1.35;;;;;;;;;;5012314;28;20079;-68
2023/10/17 14:11:42;;;;;;;3.40;0.98;;;;;;;;;;5011621;28;20935;-68
2023/10/17 14:14:10;;;;;;;5.05;1.15;;;;;;;;;;5011922;28;20686;-69
2023/10/17 14:16:40;;;;;;;6.28;1.15;;;;;;;;;;5010619;28;20040;-68
2023/10/17 14:19:18;;;;;;;4.40;1.02;;;;;;;;;;5011505;28;20067;-68
2023/10/17 14:22:04;;;;;;;3.38;0.90;;;;;;;;;;5027818;28;20061;-70
2023/10/17 14:24:49;;;;;;;3.50;1.00;;;;;;;;;;5011308;28;20075;-68
2023/10/17 14:27:16;;;;;;;2.13;0.88;;;;;;;;;;5010305;28;20046;-68
2023/10/17 14:29:43;;;;;;;4.93;1.10;;;;;;;;;;5011443;28;20029;-68
2023/10/17 14:32:09;;;;;;;6.32;0.98;;;;;;;;;;5010219;28;20124;-68
2023/10/17 14:34:37;;;;;;;3.90;1.13;;;;;;;;;;5009973;28;20025;-69
2023/10/17 14:37:05;;;;;;;2.92;1.40;;;;;;;;;;5008823;28;20079;-68
2023/10/17 14:39:31;;;;;;;3.45;1.20;;;;;;;;;;5010238;28;20033;-68
2023/10/17 14:41:57;;;;;;;3.17;1.15;;;;;;;;;;5011168;28;20160;-68
2023/10/17 14:44:29;;;;;;;5.80;1.08;;;;;;;;;;5010068;28;20136;-68
2023/10/17 14:46:57;;;;;;;3.10;1.02;;;;;;;;;;5010634;28;20038;-68
2023/10/17 14:49:24;;;;;;;2.88;1.10;;;;;;;;;;5010799;28;20551;-68
2023/10/17 14:51:50;;;;;;;6.80;1.77;;;;;;;;;;5010821;28;20044;-69
2023/10/17 14:54:16;;;;;;;3.75;0.90;;;;;;;;;;5010851;28;20035;-68
2023/10/17 14:56:42;;;;;;;3.70;0.80;;;;;;;;;;5010834;28;20033;-68
2023/10/17 14:59:09;;;;;;;3.55;0.95;;;;;;;;;;5011087;28;20025;-68
2023/10/17 15:01:36;;;;;;;3.08;0.80;;;;;;;;;;5010423;28;20072;-68
2023/10/17 15:04:02;;;;;;;5.20;1.55;;;;;;;;;;5010818;28;20068;-68
2023/10/17 15:06:29;;;;;;;4.95;0.95;;;;;;;;;;5010500;28;20051;-68
2023/10/17 15:08:55;;;;;;;2.35;0.85;;;;;;;;;;5010560;28;20041;-69
2023/10/17 15:11:23;;;;;;;5.90;0.80;;;;;;;;;;5009523;28;20894;-69
2023/10/17 15:13:49;;;;;;;4.68;1.50;;;;;;;;;;5010379;28;20437;-69
2023/10/17 15:16:18;;;;;;;3.88;1.10;;;;;;;;;;5009781;28;20080;-70
2023/10/17 15:18:51;;;;;;;4.43;0.90;;;;;;;;;;5010667;28;20479;-68
2023/10/17 15:21:19;;;;;;;3.57;1.10;;;;;;;;;;5010389;28;20031;-69
2023/10/17 15:23:45;;;;;;;3.20;0.75;;;;;;;;;;5010078;28;20037;-68
2023/10/17 15:26:11;;;;;;;3.15;0.80;;;;;;;;;;5010332;28;20112;-68
2023/10/17 15:28:37;;;;;;;4.78;0.88;;;;;;;;;;5010190;28;20076;-69
2023/10/17 15:31:03;;;;;;;4.07;1.08;;;;;;;;;;5009939;28;20037;-68
2023/10/17 15:33:30;;;;;;;4.65;1.05;;;;;;;;;;5009793;28;20034;-68
2023/10/17 15:35:56;;;;;;;5.60;0.85;;;;;;;;;;5008950;28;20029;-68
2023/10/17 15:38:22;;;;;;;7.10;0.80;;;;;;;;;;5007368;28;20758;-68
2023/10/17 15:40:52;;;;;;;2.55;0.70;;;;;;;;;;5009308;28;20040;-68
2023/10/17 15:43:18;;;;;;;3.53;0.90;;;;;;;;;;5008708;28;20111;-68
2023/10/17 15:45:55;;;;;;;1.30;0.60;;;;;;;;;;5008541;28;20221;-68
2023/10/17 15:48:26;;;;;;;2.92;0.75;;;;;;;;;;5009164;28;20958;-69
2023/10/17 15:50:56;;;;;;;2.67;0.70;;;;;;;;;;5009658;28;20025;-68
2023/10/17 15:53:31;;;;;;;2.35;0.95;;;;;;;;;;5009792;28;20630;-68
2023/10/17 15:55:58;;;;;;;7.43;1.33;;;;;;;;;;5009639;28;20040;-68
2023/10/17 15:58:28;;;;;;;4.78;0.85;;;;;;;;;;5009768;28;20030;-68
2023/10/17 16:00:55;;;;;;;5.93;0.80;;;;;;;;;;5009859;28;20044;-68
2023/10/17 16:03:21;;;;;;;2.55;0.70;;;;;;;;;;5009854;28;20057;-68
2023/10/17 16:05:51;;;;;;;4.85;1.20;;;;;;;;;;5007034;28;20033;-68
2023/10/17 16:08:18;;;;;;;3.13;0.60;;;;;;;;;;5008960;28;20026;-68
2023/10/17 16:10:45;;;;;;;2.97;1.27;;;;;;;;;;5009511;28;20153;-68
2023/10/17 16:13:11;;;;;;;5.80;0.80;;;;;;;;;;5009895;28;20017;-68
2023/10/17 16:15:37;;;;;;;3.17;0.90;;;;;;;;;;5009904;28;20025;-68
2023/10/17 16:18:04;;;;;;;2.38;0.90;;;;;;;;;;5009503;28;20034;-68
2023/10/17 16:20:31;;;;;;;4.00;1.10;;;;;;;;;;5008435;28;20033;-68
2023/10/17 16:22:58;;;;;;;7.85;1.77;;;;;;;;;;5008697;28;20034;-68
2023/10/17 16:25:24;;;;;;;4.20;1.00;;;;;;;;;;5008918;28;20053;-68
2023/10/17 16:27:51;;;;;;;5.15;1.23;;;;;;;;;;5009351;28;20044;-68
2023/10/17 16:30:18;;;;;;;7.00;1.40;;;;;;;;;;5009124;28;21841;-68
2023/10/17 16:32:44;;;;;;;3.03;0.85;;;;;;;;;;5009463;28;20033;-68
2023/10/17 16:35:10;;;;;;;3.05;1.10;;;;;;;;;;5009310;28;20057;-68
2023/10/17 16:37:36;;;;;;;4.35;1.10;;;;;;;;;;5009478;28;20041;-68
2023/10/17 16:40:03;;;;;;;4.63;0.88;;;;;;;;;;5009657;28;20050;-68
2023/10/17 16:42:32;;;;;;;2.30;0.80;;;;;;;;;;5008745;28;20029;-68
2023/10/17 16:44:58;;;;;;;4.22;1.35;;;;;;;;;;5007619;28;20025;-68
2023/10/17 16:47:27;;;;;;;3.40;0.95;;;;;;;;;;5008394;28;20068;-68
2023/10/17 16:49:53;;;;;;;7.55;1.55;;;;;;;;;;5009759;28;20046;-68
2023/10/17 16:52:21;;;;;;;3.30;1.35;;;;;;;;;;5012778;28;20056;-67
2023/10/17 16:54:47;;;;;;;3.33;0.90;;;;;;;;;;5012080;28;20026;-67
2023/10/17 16:57:13;;;;;;;3.65;0.93;;;;;;;;;;5012612;28;20047;-67
2023/10/17 16:59:40;;;;;;;2.08;0.77;;;;;;;;;;5010119;28;20511;-67
2023/10/17 17:02:07;;;;;;;4.35;0.93;;;;;;;;;;5012718;28;20029;-67
2023/10/17 17:04:33;;;;;;;5.68;1.13;;;;;;;;;;5012290;28;20041;-68
2023/10/17 17:06:59;;;;;;;5.07;1.63;;;;;;;;;;5012455;28;20025;-67
2023/10/17 17:09:27;;;;;;;3.33;1.25;;;;;;;;;;5012639;28;20053;-68
2023/10/17 17:11:54;;;;;;;3.50;1.40;;;;;;;;;;5012852;28;20033;-67
2023/10/17 17:14:21;;;;;;;5.60;1.35;;;;;;;;;;5012855;28;20142;-68
2023/10/17 17:16:53;;;;;;;6.40;1.40;;;;;;;;;;5011589;28;20487;-68
2023/10/17 17:19:19;;;;;;;4.80;1.65;;;;;;;;;;5010268;28;20714;-68
2023/10/17 17:21:48;;;;;;;5.88;1.60;;;;;;;;;;5012293;28;20033;-68
2023/10/17 17:24:16;;;;;;;4.47;1.90;;;;;;;;;;5011455;28;20022;-68